Huvudsida
METAR-TAF:

METAR-TAF

Flygplatser :

Monte Cimone, Italien

latitud: 44-12N, longitud: 010-42E, höjd: 2165 m

Aktuellt väderrapport

Denna rapport gjordes för 52 minuter sedan, klockan 13:55 UTC
Vind 9 kt från nord/nordost
Temperatur 18°C
Fuktighet 83%
Tryck 1036 hPa
Sikt 10 km eller mer
Inga moln under 1 500 m eller inga cumulonimbus

METAR: LIVC 261355Z 03009KT CAVOK 18/15 Q1036 RMK SKC MON LIB VAL NIL VIS MIN 9999

Tid: 16:47 (14:47 UTC)


TAF: saknas

Aktuella väderrapporter och prognoser från 4000 flygplatser (METAR- och TAF-rapporter).

De tillgängliga stationerna syns som gula och röda prickar på kartan.

För musen över prickarna för att se namnen på stationerna.

Klicka sedan för att få väderrapporter och prognoser.

För att ändra kartan: Klicka på de gröna knapparna med ett svart kors på för att zooma in; den gröna knappen med ett streck på för att zooma ut; eller på de gröna pilarna för angränsande kartor.


METAR-TAF: